createdAt,value
2018-09-11T00:00:17.643Z,4.17
2018-09-11T00:02:52.110Z,4.33
2018-09-11T00:05:28.318Z,4.20
2018-09-11T00:08:04.523Z,4.20
2018-09-11T00:10:40.703Z,4.27
2018-09-11T00:13:15.290Z,4.70
2018-09-11T00:15:51.507Z,4.40
2018-09-11T00:18:28.107Z,4.57
2018-09-11T00:21:04.423Z,4.67
2018-09-11T00:23:40.638Z,4.40
2018-09-11T00:26:21.890Z,3.60
2018-09-11T00:28:55.981Z,3.77
2018-09-11T00:31:31.860Z,4.07
2018-09-11T00:34:06.237Z,4.57
2018-09-11T00:36:40.485Z,4.17
2018-09-11T00:39:16.680Z,3.60
2018-09-11T00:41:50.712Z,4.23
2018-09-11T00:44:27.243Z,4.23
2018-09-11T00:47:01.370Z,3.70
2018-09-11T00:49:35.615Z,3.83
2018-09-11T00:52:10.905Z,4.73
2018-09-11T00:54:45.099Z,4.83
2018-09-11T00:57:20.480Z,4.90
2018-09-11T00:59:54.676Z,4.47
2018-09-11T01:02:29.120Z,4.00
2018-09-11T01:05:05.692Z,4.30
2018-09-11T01:07:41.656Z,5.40
2018-09-11T01:10:18.568Z,4.47
2018-09-11T01:12:54.702Z,3.63
2018-09-11T01:15:31.495Z,4.07
2018-09-11T01:20:54.481Z,4.57
2018-09-11T01:23:30.777Z,4.23
2018-09-11T01:26:05.065Z,4.53
2018-09-11T01:28:41.554Z,4.90
2018-09-11T01:31:18.782Z,4.40
2018-09-11T01:33:54.996Z,4.30
2018-09-11T01:36:29.404Z,4.80
2018-09-11T01:39:08.584Z,4.00
2018-09-11T01:41:45.248Z,4.13
2018-09-11T01:44:19.878Z,4.60
2018-09-11T01:46:54.328Z,4.63
2018-09-11T01:49:28.811Z,4.60
2018-09-11T01:52:03.286Z,4.70
2018-09-11T01:54:38.255Z,3.80
2018-09-11T01:57:13.256Z,4.23
2018-09-11T01:59:47.911Z,4.20
2018-09-11T02:02:24.571Z,4.00
2018-09-11T02:05:00.669Z,3.83
2018-09-11T02:07:36.855Z,4.13
2018-09-11T02:10:14.194Z,4.13
2018-09-11T02:12:50.439Z,4.10
2018-09-11T02:15:26.766Z,5.00
2018-09-11T02:18:01.211Z,4.30
2018-09-11T02:20:37.371Z,4.03
2018-09-11T02:24:42.705Z,4.30
2018-09-11T02:27:18.785Z,4.47
2018-09-11T02:29:53.455Z,4.37
2018-09-11T02:32:29.856Z,3.80
2018-09-11T02:35:04.579Z,4.17
2018-09-11T02:37:46.444Z,4.40
2018-09-11T02:40:22.839Z,4.43
2018-09-11T02:42:57.253Z,4.93
2018-09-11T02:45:32.312Z,4.70
2018-09-11T02:48:06.744Z,5.20
2018-09-11T02:50:43.610Z,4.93
2018-09-11T02:53:19.505Z,4.57
2018-09-11T02:55:53.829Z,4.40
2018-09-11T02:58:28.279Z,4.93
2018-09-11T03:01:03.205Z,5.00
2018-09-11T03:03:37.472Z,5.00
2018-09-11T03:06:17.094Z,4.60
2018-09-11T03:08:53.361Z,4.77
2018-09-11T03:11:29.628Z,5.67
2018-09-11T03:14:05.688Z,4.30
2018-09-11T03:16:40.667Z,5.00
2018-09-11T03:19:16.784Z,4.80
2018-09-11T03:21:53.602Z,4.80
2018-09-11T03:24:28.043Z,4.43
2018-09-11T03:27:02.518Z,4.60
2018-09-11T03:29:36.948Z,4.30
2018-09-11T03:32:13.213Z,3.60
2018-09-11T03:34:47.646Z,4.63
2018-09-11T03:37:23.458Z,5.17
2018-09-11T03:39:59.519Z,4.20
2018-09-11T03:42:33.919Z,5.43
2018-09-11T03:45:10.408Z,5.60
2018-09-11T03:47:44.964Z,5.60
2018-09-11T03:50:21.333Z,4.90
2018-09-11T03:52:55.777Z,5.33
2018-09-11T03:55:30.216Z,4.43
2018-09-11T03:58:04.623Z,4.90
2018-09-11T04:00:39.209Z,4.80
2018-09-11T04:03:13.501Z,4.83
2018-09-11T04:05:49.482Z,4.20
2018-09-11T04:08:29.012Z,4.23
2018-09-11T04:11:05.067Z,4.20
2018-09-11T04:13:41.598Z,4.90
2018-09-11T04:16:18.228Z,4.83
2018-09-11T04:18:54.921Z,5.00
2018-09-11T04:21:31.823Z,4.50
2018-09-11T04:24:06.179Z,5.10
2018-09-11T04:26:40.663Z,4.40
2018-09-11T04:29:15.193Z,4.83
2018-09-11T04:31:51.427Z,5.30
2018-09-11T04:37:08.770Z,5.23
2018-09-11T04:39:45.008Z,5.33
2018-09-11T04:42:19.573Z,4.83
2018-09-11T04:44:54.192Z,4.60
2018-09-11T04:47:28.812Z,5.10
2018-09-11T04:50:04.954Z,5.17
2018-09-11T04:52:39.447Z,5.07
2018-09-11T04:55:14.176Z,4.80
2018-09-11T04:57:48.826Z,5.13
2018-09-11T05:00:23.335Z,5.40
2018-09-11T05:02:58.401Z,5.33
2018-09-11T05:05:34.551Z,5.80
2018-09-11T05:08:11.015Z,5.20
2018-09-11T05:10:47.687Z,4.97
2018-09-11T05:13:24.158Z,6.70
2018-09-11T05:15:58.544Z,5.47
2018-09-11T05:18:38.650Z,5.90
2018-09-11T05:21:13.165Z,6.53
2018-09-11T05:23:49.236Z,6.03
2018-09-11T05:26:25.891Z,7.30
2018-09-11T05:29:00.335Z,5.70
2018-09-11T05:31:36.614Z,6.17
2018-09-11T05:34:11.078Z,6.10
2018-09-11T05:36:45.597Z,6.00
2018-09-11T05:39:21.655Z,5.80
2018-09-11T05:41:56.208Z,6.10
2018-09-11T05:44:30.474Z,5.90
2018-09-11T05:47:05.496Z,6.63
2018-09-11T05:49:41.931Z,5.73
2018-09-11T05:52:16.348Z,5.63
2018-09-11T05:54:50.984Z,5.80
2018-09-11T05:57:25.890Z,5.63
2018-09-11T06:00:00.839Z,5.33
2018-09-11T06:02:36.527Z,5.20
2018-09-11T06:05:12.653Z,5.97
2018-09-11T06:07:48.266Z,5.30
2018-09-11T06:10:24.988Z,5.73
2018-09-11T06:13:00.984Z,8.67
2018-09-11T06:15:35.551Z,6.77
2018-09-11T06:18:12.045Z,6.10
2018-09-11T06:20:48.611Z,6.00
2018-09-11T06:23:24.663Z,5.60
2018-09-11T06:26:00.411Z,5.60
2018-09-11T06:28:37.099Z,5.50
2018-09-11T06:31:14.104Z,5.10
2018-09-11T06:33:48.614Z,5.40
2018-09-11T06:36:23.483Z,5.40
2018-09-11T06:39:00.450Z,6.03
2018-09-11T06:41:35.268Z,6.53
2018-09-11T06:44:09.592Z,6.40
2018-09-11T06:46:44.243Z,6.27
2018-09-11T06:49:18.776Z,5.80
2018-09-11T06:51:53.591Z,6.70
2018-09-11T06:54:27.968Z,6.90
2018-09-11T06:57:03.486Z,7.00
2018-09-11T06:59:39.977Z,7.30
2018-09-11T07:02:14.811Z,6.97
2018-09-11T07:04:51.272Z,6.80
2018-09-11T07:07:27.555Z,7.00
2018-09-11T07:10:14.327Z,5.50
2018-09-11T07:12:51.064Z,5.87
2018-09-11T07:15:25.543Z,6.80
2018-09-11T07:18:00.320Z,7.60
2018-09-11T07:20:38.724Z,5.83
2018-09-11T07:23:14.672Z,6.80
2018-09-11T07:25:50.883Z,6.67
2018-09-11T07:28:26.707Z,7.33
2018-09-11T07:31:04.183Z,6.03
2018-09-11T07:33:38.589Z,8.17
2018-09-11T07:36:13.043Z,7.40
2018-09-11T07:38:54.504Z,6.80
2018-09-11T07:41:28.823Z,7.00
2018-09-11T07:44:03.294Z,7.53
2018-09-11T07:46:38.668Z,6.93
2018-09-11T07:49:13.084Z,6.03
2018-09-11T07:51:47.679Z,6.73
2018-09-11T07:54:23.515Z,5.30
2018-09-11T07:56:57.901Z,6.03
2018-09-11T07:59:33.652Z,4.93
2018-09-11T08:02:08.696Z,4.73
2018-09-11T08:04:44.550Z,4.93
2018-09-11T08:07:20.542Z,5.30
2018-09-11T08:09:55.858Z,5.17
2018-09-11T08:12:31.447Z,4.63
2018-09-11T08:15:07.931Z,5.40
2018-09-11T08:17:42.395Z,4.60
2018-09-11T08:20:18.246Z,4.40
2018-09-11T08:22:53.932Z,4.23
2018-09-11T08:25:29.748Z,4.33
2018-09-11T08:28:04.388Z,4.47
2018-09-11T08:30:40.446Z,4.30
2018-09-11T08:33:15.039Z,4.27
2018-09-11T08:35:49.548Z,4.00
2018-09-11T08:38:25.134Z,4.30
2018-09-11T08:41:01.043Z,4.63
2018-09-11T08:43:35.915Z,4.10
2018-09-11T08:46:10.610Z,4.50
2018-09-11T08:48:46.309Z,4.40
2018-09-11T08:51:22.069Z,3.80
2018-09-11T08:53:56.481Z,3.87
2018-09-11T08:56:30.943Z,3.47
2018-09-11T08:59:05.707Z,3.27
2018-09-11T09:01:40.030Z,3.70
2018-09-11T09:04:15.911Z,3.70
2018-09-11T09:06:51.809Z,2.90
2018-09-11T09:09:26.373Z,3.10
2018-09-11T09:12:03.882Z,2.33
2018-09-11T09:14:40.567Z,3.13
2018-09-11T09:17:14.909Z,3.27
2018-09-11T09:19:57.836Z,2.30
2018-09-11T09:22:41.579Z,3.37
2018-09-11T09:25:18.957Z,2.70
2018-09-11T09:27:54.583Z,3.50
2018-09-11T09:30:31.055Z,3.03
2018-09-11T09:33:05.574Z,2.37
2018-09-11T09:35:39.954Z,2.80
2018-09-11T09:38:15.569Z,2.80
2018-09-11T09:40:59.851Z,3.00
2018-09-11T09:43:34.546Z,3.47
2018-09-11T09:46:08.781Z,2.50
2018-09-11T09:48:43.156Z,2.80
2018-09-11T09:51:17.493Z,3.00
2018-09-11T09:53:51.875Z,2.97
2018-09-11T09:56:26.364Z,2.80
2018-09-11T09:59:01.025Z,2.10
2018-09-11T10:01:41.056Z,2.60
2018-09-11T10:04:16.603Z,2.30
2018-09-11T10:06:52.450Z,3.10
2018-09-11T10:09:28.045Z,2.70
2018-09-11T10:12:03.553Z,2.90
2018-09-11T10:14:38.119Z,2.50
2018-09-11T10:17:13.970Z,2.63
2018-09-11T10:19:49.476Z,3.07
2018-09-11T10:22:25.056Z,2.60
2018-09-11T10:25:01.040Z,2.70
2018-09-11T10:27:35.418Z,2.40
2018-09-11T10:30:17.964Z,3.17
2018-09-11T10:32:54.323Z,2.57
2018-09-11T10:35:30.551Z,2.50
2018-09-11T10:38:06.673Z,2.67
2018-09-11T10:40:43.050Z,2.27
2018-09-11T10:43:18.122Z,2.70
2018-09-11T10:45:53.242Z,2.30
2018-09-11T10:48:27.851Z,2.20
2018-09-11T10:51:02.505Z,2.47
2018-09-11T10:53:37.254Z,2.47
2018-09-11T10:56:13.613Z,2.53
2018-09-11T10:58:49.385Z,2.60
2018-09-11T11:01:23.871Z,2.00
2018-09-11T11:04:05.205Z,2.10
2018-09-11T11:06:41.026Z,2.30
2018-09-11T11:09:15.503Z,2.50
2018-09-11T11:11:56.434Z,2.50
2018-09-11T11:14:31.754Z,2.70
2018-09-11T11:17:07.450Z,2.83
2018-09-11T11:19:43.186Z,2.40
2018-09-11T11:22:19.083Z,2.50
2018-09-11T11:24:58.437Z,2.10
2018-09-11T11:27:32.911Z,2.20
2018-09-11T11:30:17.950Z,2.57
2018-09-11T11:32:52.404Z,2.43
2018-09-11T11:35:26.762Z,2.70
2018-09-11T11:38:02.828Z,2.40
2018-09-11T11:40:38.330Z,2.40
2018-09-11T11:43:12.891Z,1.97
2018-09-11T11:45:47.953Z,2.63
2018-09-11T11:48:22.345Z,1.70
2018-09-11T11:50:56.843Z,1.90
2018-09-11T11:53:31.196Z,2.73
2018-09-11T11:56:06.268Z,2.40
2018-09-11T11:58:40.563Z,2.80
2018-09-11T12:01:15.340Z,1.97
2018-09-11T12:03:49.767Z,2.63
2018-09-11T12:06:25.278Z,12.43
2018-09-11T12:08:59.678Z,14.10
2018-09-11T12:11:35.193Z,10.17
2018-09-11T12:14:10.884Z,16.17
2018-09-11T12:16:46.506Z,4.50
2018-09-11T12:19:22.239Z,2.70
2018-09-11T12:21:58.157Z,2.63
2018-09-11T12:24:33.955Z,2.27
2018-09-11T12:27:09.595Z,2.00
2018-09-11T12:29:44.159Z,2.30
2018-09-11T12:32:19.887Z,2.20
2018-09-11T12:34:55.388Z,1.80
2018-09-11T12:37:29.777Z,1.97
2018-09-11T12:40:07.509Z,1.50
2018-09-11T12:42:42.275Z,1.97
2018-09-11T12:45:17.730Z,1.53
2018-09-11T12:47:54.004Z,2.23
2018-09-11T12:50:28.535Z,1.53
2018-09-11T12:53:03.127Z,2.70
2018-09-11T12:55:38.135Z,2.23
2018-09-11T12:58:12.943Z,1.83
2018-09-11T13:00:49.130Z,2.23
2018-09-11T13:03:24.408Z,1.60
2018-09-11T13:06:00.291Z,2.10
2018-09-11T13:08:36.307Z,1.60
2018-09-11T13:11:12.348Z,2.33
2018-09-11T13:13:48.863Z,1.90
2018-09-11T13:16:24.452Z,2.03
2018-09-11T13:19:02.260Z,1.80
2018-09-11T13:21:38.555Z,2.20
2018-09-11T13:24:13.599Z,2.10
2018-09-11T13:26:50.028Z,1.80
2018-09-11T13:29:24.748Z,1.83
2018-09-11T13:32:00.294Z,1.70
2018-09-11T13:34:34.687Z,1.70
2018-09-11T13:37:10.106Z,1.80
2018-09-11T13:39:45.776Z,1.93
2018-09-11T13:42:20.307Z,2.27
2018-09-11T13:44:54.712Z,1.83
2018-09-11T13:47:29.085Z,1.80
2018-09-11T13:50:03.158Z,1.60
2018-09-11T13:52:37.273Z,1.70
2018-09-11T13:55:12.586Z,2.37
2018-09-11T13:57:46.686Z,1.93
2018-09-11T14:00:21.343Z,1.97
2018-09-11T14:02:55.812Z,1.90
2018-09-11T14:05:31.416Z,2.37
2018-09-11T14:08:07.776Z,1.70
2018-09-11T14:10:43.691Z,1.60
2018-09-11T14:13:19.468Z,2.00
2018-09-11T14:15:54.000Z,1.70
2018-09-11T14:18:28.480Z,1.63
2018-09-11T14:21:04.072Z,1.97
2018-09-11T14:23:39.687Z,1.93
2018-09-11T14:26:15.458Z,1.80
2018-09-11T14:28:50.122Z,2.10
2018-09-11T14:31:26.716Z,2.00
2018-09-11T14:34:01.499Z,1.80
2018-09-11T14:36:37.410Z,1.90
2018-09-11T14:39:13.107Z,1.87
2018-09-11T14:41:47.827Z,1.83
2018-09-11T14:44:22.215Z,1.90
2018-09-11T14:46:58.132Z,1.90
2018-09-11T14:49:32.844Z,2.27
2018-09-11T14:52:07.566Z,2.50
2018-09-11T14:54:42.037Z,1.73
2018-09-11T14:57:17.139Z,2.20
2018-09-11T14:59:52.486Z,2.00
2018-09-11T15:02:28.246Z,2.23
2018-09-11T15:05:05.287Z,1.90
2018-09-11T15:07:41.549Z,2.03
2018-09-11T15:10:17.844Z,2.07
2018-09-11T15:12:54.181Z,1.90
2018-09-11T15:15:28.921Z,2.67
2018-09-11T15:18:03.596Z,2.33
2018-09-11T15:20:39.424Z,2.13
2018-09-11T15:23:15.175Z,2.10
2018-09-11T15:25:53.675Z,2.70
2018-09-11T15:28:29.326Z,2.57
2018-09-11T15:31:05.302Z,2.40
2018-09-11T15:33:40.292Z,2.40
2018-09-11T15:36:14.899Z,2.33
2018-09-11T15:38:56.420Z,2.43
2018-09-11T15:41:31.462Z,2.90
2018-09-11T15:44:07.437Z,2.70
2018-09-11T15:46:46.490Z,2.80
2018-09-11T15:49:21.155Z,2.70
2018-09-11T15:51:55.312Z,2.30
2018-09-11T15:54:29.615Z,2.80
2018-09-11T15:57:04.450Z,2.53
2018-09-11T15:59:39.787Z,2.30
2018-09-11T16:02:16.020Z,1.90
2018-09-11T16:04:52.735Z,2.10
2018-09-11T16:07:28.557Z,2.20
2018-09-11T16:10:13.387Z,2.60
2018-09-11T16:12:49.399Z,2.50
2018-09-11T16:15:24.625Z,2.57
2018-09-11T16:17:59.823Z,2.83
2018-09-11T16:20:36.710Z,2.37
2018-09-11T16:23:13.065Z,2.80
2018-09-11T16:25:48.345Z,2.50
2018-09-11T16:28:25.512Z,4.10
2018-09-11T16:31:10.316Z,2.43
2018-09-11T16:33:51.503Z,2.00
2018-09-11T16:36:45.692Z,2.40
2018-09-11T16:39:23.172Z,1.80
2018-09-11T16:41:58.872Z,2.27
2018-09-11T16:44:33.893Z,2.83
2018-09-11T16:47:08.972Z,2.80
2018-09-11T16:49:45.336Z,2.17
2018-09-11T16:52:21.360Z,2.77
2018-09-11T16:54:56.959Z,3.30
2018-09-11T16:57:33.243Z,2.20
2018-09-11T17:00:09.348Z,2.00
2018-09-11T17:02:49.362Z,1.80
2018-09-11T17:05:24.577Z,2.17
2018-09-11T17:07:59.816Z,2.73
2018-09-11T17:10:35.865Z,2.37
2018-09-11T17:13:11.042Z,2.43
2018-09-11T17:15:45.987Z,1.90
2018-09-11T17:18:22.806Z,3.37
2018-09-11T17:20:58.753Z,2.80
2018-09-11T17:23:34.591Z,2.47
2018-09-11T17:26:10.700Z,2.97
2018-09-11T17:28:45.532Z,2.50
2018-09-11T17:31:23.732Z,2.23
2018-09-11T17:33:58.418Z,2.40
2018-09-11T17:36:33.792Z,2.67
2018-09-11T17:39:11.539Z,2.70
2018-09-11T17:41:46.602Z,2.43
2018-09-11T17:44:26.547Z,3.10
2018-09-11T17:47:00.996Z,2.70
2018-09-11T17:49:43.985Z,2.87
2018-09-11T17:52:19.233Z,3.13
2018-09-11T17:54:55.152Z,2.90
2018-09-11T17:57:32.674Z,8.80
2018-09-11T18:00:08.543Z,4.80
2018-09-11T18:02:43.038Z,5.60
2018-09-11T18:05:17.506Z,7.37
2018-09-11T18:07:53.149Z,10.73
2018-09-11T18:10:29.699Z,5.73
2018-09-11T18:13:05.273Z,5.13
2018-09-11T18:15:39.430Z,3.70
2018-09-11T18:18:13.471Z,4.17
2018-09-11T18:20:49.056Z,4.40
2018-09-11T18:23:24.988Z,3.60
2018-09-11T18:26:03.896Z,3.17
2018-09-11T18:28:38.301Z,3.97
2018-09-11T18:31:13.673Z,3.67
2018-09-11T18:33:47.950Z,6.30
2018-09-11T18:36:22.272Z,3.60
2018-09-11T18:38:58.266Z,3.17
2018-09-11T18:41:33.414Z,3.87
2018-09-11T18:44:09.359Z,3.47
2018-09-11T18:46:43.535Z,3.47
2018-09-11T18:49:17.930Z,3.07
2018-09-11T18:51:52.719Z,3.50
2018-09-11T18:54:29.249Z,4.43
2018-09-11T18:57:03.607Z,4.67
2018-09-11T18:59:39.379Z,4.20
2018-09-11T19:02:14.515Z,4.20
2018-09-11T19:04:48.566Z,3.80
2018-09-11T19:07:25.214Z,3.67
2018-09-11T19:09:59.331Z,4.10
2018-09-11T19:12:39.173Z,4.40
2018-09-11T19:15:13.487Z,3.80
2018-09-11T19:17:47.744Z,4.17
2018-09-11T19:20:23.604Z,3.60
2018-09-11T19:23:04.625Z,3.50
2018-09-11T19:25:40.053Z,4.10
2018-09-11T19:28:14.511Z,4.80
2018-09-11T19:30:55.534Z,3.50
2018-09-11T19:33:29.752Z,4.03
2018-09-11T19:36:04.432Z,3.67
2018-09-11T19:38:40.782Z,4.30
2018-09-11T19:41:16.422Z,3.50
2018-09-11T19:43:51.357Z,3.60
2018-09-11T19:46:25.886Z,3.67
2018-09-11T19:49:00.532Z,3.60
2018-09-11T19:51:37.502Z,3.40
2018-09-11T19:54:11.874Z,3.53
2018-09-11T19:56:48.274Z,4.43
2018-09-11T19:59:23.669Z,3.63
2018-09-11T20:01:58.782Z,3.23
2018-09-11T20:04:33.070Z,4.33
2018-09-11T20:07:08.449Z,3.60
2018-09-11T20:09:42.652Z,3.20
2018-09-11T20:12:18.696Z,3.63
2018-09-11T20:14:52.837Z,3.57
2018-09-11T20:17:27.210Z,4.17
2018-09-11T20:20:04.286Z,4.60
2018-09-11T20:22:39.567Z,3.87
2018-09-11T20:25:15.729Z,3.70
2018-09-11T20:27:50.083Z,3.63
2018-09-11T20:30:26.749Z,3.77
2018-09-11T20:33:02.984Z,4.07
2018-09-11T20:35:37.299Z,3.37
2018-09-11T20:38:12.960Z,4.07
2018-09-11T20:40:49.315Z,2.93
2018-09-11T20:43:25.599Z,3.90
2018-09-11T20:46:03.844Z,3.73
2018-09-11T20:48:39.030Z,3.90
2018-09-11T20:51:14.978Z,3.70
2018-09-11T20:53:53.230Z,3.47
2018-09-11T20:56:34.383Z,3.77
2018-09-11T20:59:10.139Z,3.90
2018-09-11T21:01:47.932Z,6.47
2018-09-11T21:04:22.965Z,5.27
2018-09-11T21:07:00.260Z,4.00
2018-09-11T21:09:34.411Z,4.00
2018-09-11T21:12:11.690Z,3.80
2018-09-11T21:14:46.523Z,3.40
2018-09-11T21:17:21.133Z,5.60
2018-09-11T21:19:59.154Z,5.40
2018-09-11T21:22:35.011Z,5.80
2018-09-11T21:25:10.966Z,4.17
2018-09-11T21:27:48.435Z,5.60
2018-09-11T21:30:23.846Z,6.47
2018-09-11T21:32:58.239Z,8.30
2018-09-11T21:35:32.334Z,3.70
2018-09-11T21:38:12.983Z,5.23
2018-09-11T21:40:48.414Z,3.50
2018-09-11T21:43:22.879Z,3.40
2018-09-11T21:45:56.968Z,3.67
2018-09-11T21:48:31.317Z,3.90
2018-09-11T21:51:06.930Z,5.97
2018-09-11T21:53:41.195Z,4.50
2018-09-11T21:56:15.282Z,3.17
2018-09-11T21:58:50.516Z,3.30
2018-09-11T22:01:31.803Z,3.03
2018-09-11T22:04:06.118Z,3.57
2018-09-11T22:06:41.693Z,3.20
2018-09-11T22:09:15.936Z,3.50
2018-09-11T22:11:58.861Z,3.20
2018-09-11T22:14:33.077Z,3.37
2018-09-11T22:17:07.271Z,3.60
2018-09-11T22:19:42.968Z,3.97
2018-09-11T22:22:18.412Z,4.07
2018-09-11T22:24:59.015Z,4.73
2018-09-11T22:27:33.304Z,3.63
2018-09-11T22:30:07.467Z,3.47
2018-09-11T22:32:42.647Z,3.17
2018-09-11T22:35:17.887Z,3.20
2018-09-11T22:37:53.355Z,2.90
2018-09-11T22:40:29.337Z,3.57
2018-09-11T22:43:07.044Z,3.40
2018-09-11T22:45:41.139Z,3.10
2018-09-11T22:48:16.911Z,3.13
2018-09-11T22:50:51.055Z,3.30
2018-09-11T22:53:25.616Z,3.50
2018-09-11T22:55:59.822Z,3.40
2018-09-11T22:58:34.264Z,4.10
2018-09-11T23:01:09.694Z,3.27
2018-09-11T23:03:44.107Z,3.80
2018-09-11T23:06:20.287Z,3.70
2018-09-11T23:08:54.594Z,3.13
2018-09-11T23:11:29.838Z,3.53
2018-09-11T23:14:05.078Z,3.77
2018-09-11T23:16:40.738Z,3.47
2018-09-11T23:19:30.731Z,3.40
2018-09-11T23:22:06.263Z,4.03
2018-09-11T23:24:40.378Z,3.47
2018-09-11T23:27:15.707Z,3.80
2018-09-11T23:29:49.817Z,3.40
2018-09-11T23:32:25.583Z,3.47
2018-09-11T23:34:59.847Z,3.20
2018-09-11T23:37:33.958Z,3.47
2018-09-11T23:40:09.593Z,3.20
2018-09-11T23:42:44.937Z,3.77
2018-09-11T23:45:27.056Z,3.30
2018-09-11T23:48:01.510Z,4.07
2018-09-11T23:50:36.044Z,3.80
2018-09-11T23:53:10.345Z,3.77
2018-09-11T23:55:44.791Z,4.87
2018-09-11T23:58:18.844Z,3.33
